Terminal Aerodrome Forecast
Issued by NWS

Home | Current Version | Previous Version | Text Only | Print | Product List | Glossary On
Versions: 1 2 3 4 5 6 7 8 9 10 11 12 13
000
FTUS45 KRIW 231127
TAFPNA
TAF
KPNA 231127Z 2312/2412 30008KT 6SM FU SKC
     FM231900 29014G24KT P6SM SKC
     FM240100 29011KT P6SM SKC
     FM241100 29006KT 6SM FU SKC
      AMD LTD TO CLD VIS AND WIND=

USA.gov is the U.S. government's official web portal to all federal, state and local government web resources and services.